sensor_id;sensor_type;location;lat;lon;timestamp;temperature;humidity
2825;DHT22;1420;51.324;12.344;2023-04-29T00:00:12;11.60;99.90
2825;DHT22;1420;51.324;12.344;2023-04-29T00:02:39;11.50;99.90
2825;DHT22;1420;51.324;12.344;2023-04-29T00:05:08;11.50;99.90
2825;DHT22;1420;51.324;12.344;2023-04-29T00:07:35;11.50;99.90
2825;DHT22;1420;51.324;12.344;2023-04-29T00:10:02;11.60;99.90
2825;DHT22;1420;51.324;12.344;2023-04-29T00:12:30;11.50;99.90
2825;DHT22;1420;51.324;12.344;2023-04-29T00:14:58;11.40;99.90
2825;DHT22;1420;51.324;12.344;2023-04-29T00:17:25;11.40;99.90
2825;DHT22;1420;51.324;12.344;2023-04-29T00:19:52;11.40;99.90
2825;DHT22;1420;51.324;12.344;2023-04-29T00:22:19;11.40;99.90
2825;DHT22;1420;51.324;12.344;2023-04-29T00:24:47;11.40;99.90
2825;DHT22;1420;51.324;12.344;2023-04-29T00:27:14;11.40;99.90
2825;DHT22;1420;51.324;12.344;2023-04-29T00:29:42;11.40;99.90
2825;DHT22;1420;51.324;12.344;2023-04-29T00:32:09;11.30;99.90
2825;DHT22;1420;51.324;12.344;2023-04-29T00:34:36;11.30;99.90
2825;DHT22;1420;51.324;12.344;2023-04-29T00:37:03;11.40;99.90
2825;DHT22;1420;51.324;12.344;2023-04-29T00:39:31;11.40;99.90
2825;DHT22;1420;51.324;12.344;2023-04-29T00:41:58;11.40;99.90
2825;DHT22;1420;51.324;12.344;2023-04-29T00:44:25;11.50;99.90
2825;DHT22;1420;51.324;12.344;2023-04-29T00:46:53;11.30;99.90
2825;DHT22;1420;51.324;12.344;2023-04-29T00:49:20;11.30;99.90
2825;DHT22;1420;51.324;12.344;2023-04-29T00:51:48;11.30;99.90
2825;DHT22;1420;51.324;12.344;2023-04-29T00:54:15;11.40;99.90
2825;DHT22;1420;51.324;12.344;2023-04-29T00:56:44;11.30;99.90
2825;DHT22;1420;51.324;12.344;2023-04-29T00:59:10;11.30;99.90
2825;DHT22;1420;51.324;12.344;2023-04-29T01:01:38;11.30;99.90
2825;DHT22;1420;51.324;12.344;2023-04-29T01:04:05;11.30;99.90
2825;DHT22;1420;51.324;12.344;2023-04-29T01:06:53;11.30;99.90
2825;DHT22;1420;51.324;12.344;2023-04-29T01:12:07;11.40;99.90
2825;DHT22;1420;51.324;12.344;2023-04-29T01:14:32;11.40;99.90
2825;DHT22;1420;51.324;12.344;2023-04-29T01:17:04;11.40;99.90
2825;DHT22;1420;51.324;12.344;2023-04-29T01:19:51;11.50;99.90
2825;DHT22;1420;51.324;12.344;2023-04-29T01:22:19;11.40;99.90
2825;DHT22;1420;51.324;12.344;2023-04-29T01:24:46;11.50;99.90
2825;DHT22;1420;51.324;12.344;2023-04-29T01:30:04;11.50;99.90
2825;DHT22;1420;51.324;12.344;2023-04-29T01:32:39;11.40;99.90
2825;DHT22;1420;51.324;12.344;2023-04-29T01:37:55;11.40;99.90
2825;DHT22;1420;51.324;12.344;2023-04-29T01:40:21;11.50;99.90
2825;DHT22;1420;51.324;12.344;2023-04-29T01:42:52;11.40;99.90
2825;DHT22;1420;51.324;12.344;2023-04-29T01:45:15;11.40;99.90
2825;DHT22;1420;51.324;12.344;2023-04-29T01:47:44;11.40;99.90
2825;DHT22;1420;51.324;12.344;2023-04-29T01:50:11;11.40;99.90
2825;DHT22;1420;51.324;12.344;2023-04-29T01:52:39;11.30;99.90
2825;DHT22;1420;51.324;12.344;2023-04-29T01:55:07;11.30;99.90
2825;DHT22;1420;51.324;12.344;2023-04-29T01:57:34;11.20;99.90
2825;DHT22;1420;51.324;12.344;2023-04-29T02:00:02;11.30;99.90
2825;DHT22;1420;51.324;12.344;2023-04-29T02:02:30;11.20;99.90
2825;DHT22;1420;51.324;12.344;2023-04-29T02:04:57;11.30;99.90
2825;DHT22;1420;51.324;12.344;2023-04-29T02:07:24;11.40;99.90
2825;DHT22;1420;51.324;12.344;2023-04-29T02:09:52;11.30;99.90
2825;DHT22;1420;51.324;12.344;2023-04-29T02:12:19;11.30;99.90
2825;DHT22;1420;51.324;12.344;2023-04-29T02:14:46;11.30;99.90
2825;DHT22;1420;51.324;12.344;2023-04-29T02:17:14;11.40;99.90
2825;DHT22;1420;51.324;12.344;2023-04-29T02:19:41;11.40;99.90
2825;DHT22;1420;51.324;12.344;2023-04-29T02:22:08;11.50;99.90
2825;DHT22;1420;51.324;12.344;2023-04-29T02:24:35;11.40;99.90
2825;DHT22;1420;51.324;12.344;2023-04-29T02:27:02;11.40;99.90
2825;DHT22;1420;51.324;12.344;2023-04-29T02:29:30;11.50;99.90
2825;DHT22;1420;51.324;12.344;2023-04-29T02:31:57;11.40;99.90
2825;DHT22;1420;51.324;12.344;2023-04-29T02:34:24;11.30;99.90
2825;DHT22;1420;51.324;12.344;2023-04-29T02:36:51;11.30;99.90
2825;DHT22;1420;51.324;12.344;2023-04-29T02:39:19;11.30;99.90
2825;DHT22;1420;51.324;12.344;2023-04-29T02:41:46;11.30;99.90
2825;DHT22;1420;51.324;12.344;2023-04-29T02:44:13;11.30;99.90
2825;DHT22;1420;51.324;12.344;2023-04-29T02:46:40;11.40;99.90
2825;DHT22;1420;51.324;12.344;2023-04-29T02:49:09;11.40;99.90
2825;DHT22;1420;51.324;12.344;2023-04-29T02:51:37;11.40;99.90
2825;DHT22;1420;51.324;12.344;2023-04-29T02:54:05;11.40;99.90
2825;DHT22;1420;51.324;12.344;2023-04-29T02:56:32;11.30;99.90
2825;DHT22;1420;51.324;12.344;2023-04-29T02:58:59;11.30;99.90
2825;DHT22;1420;51.324;12.344;2023-04-29T03:01:26;11.30;99.90
2825;DHT22;1420;51.324;12.344;2023-04-29T03:03:54;11.30;99.90
2825;DHT22;1420;51.324;12.344;2023-04-29T03:06:22;11.30;99.90
2825;DHT22;1420;51.324;12.344;2023-04-29T03:08:50;11.30;99.90
2825;DHT22;1420;51.324;12.344;2023-04-29T03:11:18;11.40;99.90
2825;DHT22;1420;51.324;12.344;2023-04-29T03:13:46;11.40;99.90
2825;DHT22;1420;51.324;12.344;2023-04-29T03:16:13;11.30;99.90
2825;DHT22;1420;51.324;12.344;2023-04-29T03:18:40;11.30;99.90
2825;DHT22;1420;51.324;12.344;2023-04-29T03:21:07;11.20;99.90
2825;DHT22;1420;51.324;12.344;2023-04-29T03:23:34;11.30;99.90
2825;DHT22;1420;51.324;12.344;2023-04-29T03:26:02;11.40;99.90
2825;DHT22;1420;51.324;12.344;2023-04-29T03:28:29;11.20;99.90
2825;DHT22;1420;51.324;12.344;2023-04-29T03:30:57;11.30;99.90
2825;DHT22;1420;51.324;12.344;2023-04-29T03:33:24;11.30;99.90
2825;DHT22;1420;51.324;12.344;2023-04-29T03:35:52;11.30;99.90
2825;DHT22;1420;51.324;12.344;2023-04-29T03:38:20;11.40;99.90
2825;DHT22;1420;51.324;12.344;2023-04-29T03:40:47;11.30;99.90
2825;DHT22;1420;51.324;12.344;2023-04-29T03:43:15;11.30;99.90
2825;DHT22;1420;51.324;12.344;2023-04-29T03:45:43;11.40;99.90
2825;DHT22;1420;51.324;12.344;2023-04-29T03:48:10;11.40;99.90
2825;DHT22;1420;51.324;12.344;2023-04-29T03:50:38;11.40;99.90
2825;DHT22;1420;51.324;12.344;2023-04-29T03:53:06;11.40;99.90
2825;DHT22;1420;51.324;12.344;2023-04-29T03:55:33;11.30;99.90
2825;DHT22;1420;51.324;12.344;2023-04-29T03:58:00;11.40;99.90
2825;DHT22;1420;51.324;12.344;2023-04-29T04:00:28;11.40;99.90
2825;DHT22;1420;51.324;12.344;2023-04-29T04:02:55;11.50;99.90
2825;DHT22;1420;51.324;12.344;2023-04-29T04:05:22;11.50;99.90
2825;DHT22;1420;51.324;12.344;2023-04-29T04:07:50;11.50;99.90
2825;DHT22;1420;51.324;12.344;2023-04-29T04:10:17;11.60;99.90
2825;DHT22;1420;51.324;12.344;2023-04-29T04:12:45;11.60;99.90
2825;DHT22;1420;51.324;12.344;2023-04-29T04:15:12;11.50;99.90
2825;DHT22;1420;51.324;12.344;2023-04-29T04:17:39;11.60;99.90
2825;DHT22;1420;51.324;12.344;2023-04-29T04:20:07;11.70;99.90
2825;DHT22;1420;51.324;12.344;2023-04-29T04:22:34;11.70;99.90
2825;DHT22;1420;51.324;12.344;2023-04-29T04:25:01;11.80;99.90
2825;DHT22;1420;51.324;12.344;2023-04-29T04:27:28;11.80;99.90
2825;DHT22;1420;51.324;12.344;2023-04-29T04:29:56;11.80;99.90
2825;DHT22;1420;51.324;12.344;2023-04-29T04:32:24;11.70;99.90
2825;DHT22;1420;51.324;12.344;2023-04-29T04:34:52;11.80;99.90
2825;DHT22;1420;51.324;12.344;2023-04-29T04:37:19;11.80;99.90
2825;DHT22;1420;51.324;12.344;2023-04-29T04:39:46;11.80;99.90
2825;DHT22;1420;51.324;12.344;2023-04-29T04:42:13;11.90;99.90
2825;DHT22;1420;51.324;12.344;2023-04-29T04:44:41;11.90;99.90
2825;DHT22;1420;51.324;12.344;2023-04-29T04:47:08;11.90;99.90
2825;DHT22;1420;51.324;12.344;2023-04-29T04:49:35;12.00;99.90
2825;DHT22;1420;51.324;12.344;2023-04-29T04:52:03;12.00;99.90
2825;DHT22;1420;51.324;12.344;2023-04-29T04:54:30;12.00;99.90
2825;DHT22;1420;51.324;12.344;2023-04-29T04:56:57;12.00;99.90
2825;DHT22;1420;51.324;12.344;2023-04-29T04:59:24;12.00;99.90
2825;DHT22;1420;51.324;12.344;2023-04-29T05:01:51;11.90;99.90
2825;DHT22;1420;51.324;12.344;2023-04-29T05:04:19;11.90;99.90
2825;DHT22;1420;51.324;12.344;2023-04-29T05:06:47;11.90;99.90
2825;DHT22;1420;51.324;12.344;2023-04-29T05:09:14;11.80;99.90
2825;DHT22;1420;51.324;12.344;2023-04-29T05:11:41;11.80;99.90
2825;DHT22;1420;51.324;12.344;2023-04-29T05:14:08;11.90;99.90
2825;DHT22;1420;51.324;12.344;2023-04-29T05:16:36;11.90;99.90
2825;DHT22;1420;51.324;12.344;2023-04-29T05:19:03;12.00;99.90
2825;DHT22;1420;51.324;12.344;2023-04-29T05:21:30;12.00;99.90
2825;DHT22;1420;51.324;12.344;2023-04-29T05:23:58;12.10;99.90
2825;DHT22;1420;51.324;12.344;2023-04-29T05:26:25;12.10;99.90
2825;DHT22;1420;51.324;12.344;2023-04-29T05:28:52;12.10;99.90
2825;DHT22;1420;51.324;12.344;2023-04-29T05:31:20;12.10;99.90
2825;DHT22;1420;51.324;12.344;2023-04-29T05:33:47;12.30;99.90
2825;DHT22;1420;51.324;12.344;2023-04-29T05:36:15;12.40;99.90
2825;DHT22;1420;51.324;12.344;2023-04-29T05:38:43;12.40;99.90
2825;DHT22;1420;51.324;12.344;2023-04-29T05:41:10;12.40;99.90
2825;DHT22;1420;51.324;12.344;2023-04-29T05:43:37;12.60;99.90
2825;DHT22;1420;51.324;12.344;2023-04-29T05:46:04;12.50;99.90
2825;DHT22;1420;51.324;12.344;2023-04-29T05:48:31;12.60;99.90
2825;DHT22;1420;51.324;12.344;2023-04-29T05:50:59;12.70;99.90
2825;DHT22;1420;51.324;12.344;2023-04-29T05:53:26;12.60;99.90
2825;DHT22;1420;51.324;12.344;2023-04-29T05:55:53;12.70;99.90
2825;DHT22;1420;51.324;12.344;2023-04-29T05:58:21;13.40;99.90
2825;DHT22;1420;51.324;12.344;2023-04-29T06:00:48;13.40;99.90
2825;DHT22;1420;51.324;12.344;2023-04-29T06:03:16;13.60;99.90
2825;DHT22;1420;51.324;12.344;2023-04-29T06:05:43;13.80;99.90
2825;DHT22;1420;51.324;12.344;2023-04-29T06:08:10;13.90;99.90
2825;DHT22;1420;51.324;12.344;2023-04-29T06:10:37;14.00;99.90
2825;DHT22;1420;51.324;12.344;2023-04-29T06:13:04;14.10;99.90
2825;DHT22;1420;51.324;12.344;2023-04-29T06:15:32;13.90;99.90
2825;DHT22;1420;51.324;12.344;2023-04-29T06:17:59;13.80;99.90
2825;DHT22;1420;51.324;12.344;2023-04-29T06:20:26;13.70;99.90
2825;DHT22;1420;51.324;12.344;2023-04-29T06:22:53;13.50;99.90
2825;DHT22;1420;51.324;12.344;2023-04-29T06:25:21;13.50;99.90
2825;DHT22;1420;51.324;12.344;2023-04-29T06:27:48;13.30;99.90
2825;DHT22;1420;51.324;12.344;2023-04-29T06:30:15;13.20;99.90
2825;DHT22;1420;51.324;12.344;2023-04-29T06:32:43;13.10;99.90
2825;DHT22;1420;51.324;12.344;2023-04-29T06:35:11;13.00;99.90
2825;DHT22;1420;51.324;12.344;2023-04-29T06:37:38;13.00;99.90
2825;DHT22;1420;51.324;12.344;2023-04-29T06:40:07;13.00;99.90
2825;DHT22;1420;51.324;12.344;2023-04-29T06:42:34;13.00;99.90
2825;DHT22;1420;51.324;12.344;2023-04-29T06:45:01;12.90;99.90
2825;DHT22;1420;51.324;12.344;2023-04-29T06:47:29;12.80;99.90
2825;DHT22;1420;51.324;12.344;2023-04-29T06:49:56;12.90;99.90
2825;DHT22;1420;51.324;12.344;2023-04-29T06:52:23;12.90;99.90
2825;DHT22;1420;51.324;12.344;2023-04-29T06:54:51;12.90;99.90
2825;DHT22;1420;51.324;12.344;2023-04-29T06:57:18;12.90;99.90
2825;DHT22;1420;51.324;12.344;2023-04-29T06:59:46;13.10;99.90
2825;DHT22;1420;51.324;12.344;2023-04-29T07:02:14;12.90;99.90
2825;DHT22;1420;51.324;12.344;2023-04-29T07:04:42;13.00;99.90
2825;DHT22;1420;51.324;12.344;2023-04-29T07:07:09;12.90;99.90
2825;DHT22;1420;51.324;12.344;2023-04-29T07:09:36;12.90;99.90
2825;DHT22;1420;51.324;12.344;2023-04-29T07:12:03;13.00;99.90
2825;DHT22;1420;51.324;12.344;2023-04-29T07:14:31;12.90;99.90
2825;DHT22;1420;51.324;12.344;2023-04-29T07:16:59;12.80;99.90
2825;DHT22;1420;51.324;12.344;2023-04-29T07:19:27;13.30;99.90
2825;DHT22;1420;51.324;12.344;2023-04-29T07:21:54;13.20;99.90
2825;DHT22;1420;51.324;12.344;2023-04-29T07:24:22;13.40;99.90
2825;DHT22;1420;51.324;12.344;2023-04-29T07:26:49;13.30;99.90
2825;DHT22;1420;51.324;12.344;2023-04-29T07:29:16;13.60;99.90
2825;DHT22;1420;51.324;12.344;2023-04-29T07:31:44;13.50;99.90
2825;DHT22;1420;51.324;12.344;2023-04-29T07:34:11;13.60;99.90
2825;DHT22;1420;51.324;12.344;2023-04-29T07:36:38;13.20;99.90
2825;DHT22;1420;51.324;12.344;2023-04-29T07:39:05;13.20;99.90
2825;DHT22;1420;51.324;12.344;2023-04-29T07:41:33;13.00;99.90
2825;DHT22;1420;51.324;12.344;2023-04-29T07:44:00;12.80;99.90
2825;DHT22;1420;51.324;12.344;2023-04-29T07:46:27;12.70;99.90
2825;DHT22;1420;51.324;12.344;2023-04-29T07:48:55;12.50;99.90
2825;DHT22;1420;51.324;12.344;2023-04-29T07:51:22;12.40;99.90
2825;DHT22;1420;51.324;12.344;2023-04-29T07:53:50;12.50;99.90
2825;DHT22;1420;51.324;12.344;2023-04-29T07:56:18;12.40;99.90
2825;DHT22;1420;51.324;12.344;2023-04-29T07:58:46;12.30;99.90
2825;DHT22;1420;51.324;12.344;2023-04-29T08:01:13;12.50;99.90
2825;DHT22;1420;51.324;12.344;2023-04-29T08:03:41;12.50;99.90
2825;DHT22;1420;51.324;12.344;2023-04-29T08:06:08;12.60;99.90
2825;DHT22;1420;51.324;12.344;2023-04-29T08:08:35;12.70;99.90
2825;DHT22;1420;51.324;12.344;2023-04-29T08:11:02;12.70;99.90
2825;DHT22;1420;51.324;12.344;2023-04-29T08:13:30;12.70;99.90
2825;DHT22;1420;51.324;12.344;2023-04-29T08:15:58;12.80;99.90
2825;DHT22;1420;51.324;12.344;2023-04-29T08:18:25;12.80;99.90
2825;DHT22;1420;51.324;12.344;2023-04-29T08:20:53;12.80;99.90
2825;DHT22;1420;51.324;12.344;2023-04-29T08:23:20;12.70;99.90
2825;DHT22;1420;51.324;12.344;2023-04-29T08:25:47;12.50;99.90
2825;DHT22;1420;51.324;12.344;2023-04-29T08:28:14;12.50;99.90
2825;DHT22;1420;51.324;12.344;2023-04-29T08:30:42;12.50;99.90
2825;DHT22;1420;51.324;12.344;2023-04-29T08:33:09;12.40;99.90
2825;DHT22;1420;51.324;12.344;2023-04-29T08:35:37;12.70;99.90
2825;DHT22;1420;51.324;12.344;2023-04-29T08:38:05;12.60;99.90
2825;DHT22;1420;51.324;12.344;2023-04-29T08:40:37;12.90;99.90
2825;DHT22;1420;51.324;12.344;2023-04-29T08:43:03;12.90;99.90
2825;DHT22;1420;51.324;12.344;2023-04-29T08:45:30;13.10;99.90
2825;DHT22;1420;51.324;12.344;2023-04-29T08:47:57;13.40;99.90
2825;DHT22;1420;51.324;12.344;2023-04-29T08:50:24;13.20;99.90
2825;DHT22;1420;51.324;12.344;2023-04-29T08:52:51;13.40;99.90
2825;DHT22;1420;51.324;12.344;2023-04-29T08:55:19;13.40;99.90
2825;DHT22;1420;51.324;12.344;2023-04-29T08:57:46;13.40;99.90
2825;DHT22;1420;51.324;12.344;2023-04-29T09:00:13;13.40;99.90
2825;DHT22;1420;51.324;12.344;2023-04-29T09:02:44;13.20;99.90
2825;DHT22;1420;51.324;12.344;2023-04-29T09:05:11;13.20;99.90
2825;DHT22;1420;51.324;12.344;2023-04-29T09:07:38;13.30;99.90
2825;DHT22;1420;51.324;12.344;2023-04-29T09:10:06;13.20;99.90
2825;DHT22;1420;51.324;12.344;2023-04-29T09:12:33;13.20;99.90
2825;DHT22;1420;51.324;12.344;2023-04-29T09:15:01;13.10;99.90
2825;DHT22;1420;51.324;12.344;2023-04-29T09:17:38;13.00;99.90
2825;DHT22;1420;51.324;12.344;2023-04-29T09:22:47;12.70;99.90
2825;DHT22;1420;51.324;12.344;2023-04-29T09:25:14;12.60;99.90
2825;DHT22;1420;51.324;12.344;2023-04-29T09:27:41;12.70;99.90
2825;DHT22;1420;51.324;12.344;2023-04-29T09:30:08;12.80;99.90
2825;DHT22;1420;51.324;12.344;2023-04-29T09:32:35;12.90;99.90
2825;DHT22;1420;51.324;12.344;2023-04-29T09:37:42;12.80;99.90
2825;DHT22;1420;51.324;12.344;2023-04-29T09:40:26;12.60;99.90
2825;DHT22;1420;51.324;12.344;2023-04-29T09:42:44;12.50;99.90
2825;DHT22;1420;51.324;12.344;2023-04-29T09:45:11;12.30;99.90
2825;DHT22;1420;51.324;12.344;2023-04-29T09:47:38;12.40;99.90
2825;DHT22;1420;51.324;12.344;2023-04-29T09:50:10;12.50;99.90
2825;DHT22;1420;51.324;12.344;2023-04-29T09:52:39;12.60;99.90
2825;DHT22;1420;51.324;12.344;2023-04-29T09:55:07;12.70;99.90
2825;DHT22;1420;51.324;12.344;2023-04-29T09:57:39;12.90;99.90
2825;DHT22;1420;51.324;12.344;2023-04-29T10:00:07;13.00;99.90
2825;DHT22;1420;51.324;12.344;2023-04-29T10:02:34;12.90;99.90
2825;DHT22;1420;51.324;12.344;2023-04-29T10:05:02;12.70;99.90
2825;DHT22;1420;51.324;12.344;2023-04-29T10:07:29;12.60;99.90
2825;DHT22;1420;51.324;12.344;2023-04-29T10:09:56;12.60;99.90
2825;DHT22;1420;51.324;12.344;2023-04-29T10:12:23;12.60;99.90
2825;DHT22;1420;51.324;12.344;2023-04-29T10:14:54;12.30;99.90
2825;DHT22;1420;51.324;12.344;2023-04-29T10:17:23;12.20;99.90
2825;DHT22;1420;51.324;12.344;2023-04-29T10:19:57;12.20;99.90
2825;DHT22;1420;51.324;12.344;2023-04-29T10:22:25;12.10;99.90
2825;DHT22;1420;51.324;12.344;2023-04-29T10:24:49;11.90;99.90
2825;DHT22;1420;51.324;12.344;2023-04-29T10:27:16;11.90;99.90
2825;DHT22;1420;51.324;12.344;2023-04-29T10:29:43;12.10;99.90
2825;DHT22;1420;51.324;12.344;2023-04-29T10:32:11;12.30;99.90
2825;DHT22;1420;51.324;12.344;2023-04-29T10:34:38;12.10;99.90
2825;DHT22;1420;51.324;12.344;2023-04-29T10:37:09;12.30;99.90
2825;DHT22;1420;51.324;12.344;2023-04-29T10:39:56;12.30;99.90
2825;DHT22;1420;51.324;12.344;2023-04-29T10:42:36;12.30;99.90
2825;DHT22;1420;51.324;12.344;2023-04-29T10:47:40;12.00;99.90
2825;DHT22;1420;51.324;12.344;2023-04-29T10:50:07;11.90;99.90
2825;DHT22;1420;51.324;12.344;2023-04-29T10:55:14;11.80;99.90
2825;DHT22;1420;51.324;12.344;2023-04-29T10:57:42;11.60;99.90
2825;DHT22;1420;51.324;12.344;2023-04-29T11:00:20;11.60;99.90
2825;DHT22;1420;51.324;12.344;2023-04-29T11:02:36;11.50;99.90
2825;DHT22;1420;51.324;12.344;2023-04-29T11:05:08;11.50;99.90
2825;DHT22;1420;51.324;12.344;2023-04-29T11:07:35;11.60;99.90
2825;DHT22;1420;51.324;12.344;2023-04-29T11:10:03;11.50;99.90
2825;DHT22;1420;51.324;12.344;2023-04-29T11:12:31;11.70;99.90
2825;DHT22;1420;51.324;12.344;2023-04-29T11:14:58;11.60;99.90
2825;DHT22;1420;51.324;12.344;2023-04-29T11:17:26;11.70;99.90
2825;DHT22;1420;51.324;12.344;2023-04-29T11:19:54;11.80;99.90
2825;DHT22;1420;51.324;12.344;2023-04-29T11:22:25;11.80;99.90
2825;DHT22;1420;51.324;12.344;2023-04-29T11:24:57;11.80;99.90
2825;DHT22;1420;51.324;12.344;2023-04-29T11:27:23;11.70;99.90
2825;DHT22;1420;51.324;12.344;2023-04-29T11:29:52;11.50;99.90
2825;DHT22;1420;51.324;12.344;2023-04-29T11:32:19;11.50;99.90
2825;DHT22;1420;51.324;12.344;2023-04-29T11:34:46;11.50;99.90
2825;DHT22;1420;51.324;12.344;2023-04-29T11:37:18;11.50;99.90
2825;DHT22;1420;51.324;12.344;2023-04-29T11:39:41;11.50;99.90
2825;DHT22;1420;51.324;12.344;2023-04-29T11:42:09;11.50;99.90
2825;DHT22;1420;51.324;12.344;2023-04-29T11:44:36;11.40;99.90
2825;DHT22;1420;51.324;12.344;2023-04-29T11:47:05;11.50;99.90
2825;DHT22;1420;51.324;12.344;2023-04-29T11:49:32;11.30;99.90
2825;DHT22;1420;51.324;12.344;2023-04-29T11:51:59;11.40;99.90
2825;DHT22;1420;51.324;12.344;2023-04-29T11:54:28;11.50;99.90
2825;DHT22;1420;51.324;12.344;2023-04-29T11:56:56;11.50;99.90
2825;DHT22;1420;51.324;12.344;2023-04-29T11:59:23;11.50;99.90
2825;DHT22;1420;51.324;12.344;2023-04-29T12:01:51;11.40;99.90
2825;DHT22;1420;51.324;12.344;2023-04-29T12:04:18;11.30;99.90
2825;DHT22;1420;51.324;12.344;2023-04-29T12:06:46;11.30;99.90
2825;DHT22;1420;51.324;12.344;2023-04-29T12:09:13;11.40;99.90
2825;DHT22;1420;51.324;12.344;2023-04-29T12:11:40;11.60;99.90
2825;DHT22;1420;51.324;12.344;2023-04-29T12:14:07;11.70;99.90
2825;DHT22;1420;51.324;12.344;2023-04-29T12:16:35;11.90;99.90
2825;DHT22;1420;51.324;12.344;2023-04-29T12:19:03;11.90;99.90
2825;DHT22;1420;51.324;12.344;2023-04-29T12:21:32;12.50;99.90
2825;DHT22;1420;51.324;12.344;2023-04-29T12:23:58;12.50;99.90
2825;DHT22;1420;51.324;12.344;2023-04-29T12:26:26;12.60;99.90
2825;DHT22;1420;51.324;12.344;2023-04-29T12:28:53;13.10;99.90
2825;DHT22;1420;51.324;12.344;2023-04-29T12:31:20;13.20;99.90
2825;DHT22;1420;51.324;12.344;2023-04-29T12:33:48;12.80;99.90
2825;DHT22;1420;51.324;12.344;2023-04-29T12:36:16;12.70;99.90
2825;DHT22;1420;51.324;12.344;2023-04-29T12:38:43;12.70;99.90
2825;DHT22;1420;51.324;12.344;2023-04-29T12:41:10;12.80;99.90
2825;DHT22;1420;51.324;12.344;2023-04-29T12:43:37;12.80;99.90
2825;DHT22;1420;51.324;12.344;2023-04-29T12:46:05;13.20;99.90
2825;DHT22;1420;51.324;12.344;2023-04-29T12:48:33;13.20;99.90
2825;DHT22;1420;51.324;12.344;2023-04-29T12:51:00;13.20;99.90
2825;DHT22;1420;51.324;12.344;2023-04-29T12:53:28;13.30;99.90
2825;DHT22;1420;51.324;12.344;2023-04-29T12:55:55;13.50;99.90
2825;DHT22;1420;51.324;12.344;2023-04-29T12:58:22;13.60;99.90
2825;DHT22;1420;51.324;12.344;2023-04-29T13:00:50;13.60;99.90
2825;DHT22;1420;51.324;12.344;2023-04-29T13:03:16;13.70;99.90
2825;DHT22;1420;51.324;12.344;2023-04-29T13:05:44;13.70;99.90
2825;DHT22;1420;51.324;12.344;2023-04-29T13:08:11;13.80;99.90
2825;DHT22;1420;51.324;12.344;2023-04-29T13:10:38;13.70;99.90
2825;DHT22;1420;51.324;12.344;2023-04-29T13:13:05;13.50;99.90
2825;DHT22;1420;51.324;12.344;2023-04-29T13:15:33;13.40;99.90
2825;DHT22;1420;51.324;12.344;2023-04-29T13:18:00;13.40;99.90
2825;DHT22;1420;51.324;12.344;2023-04-29T13:20:27;13.30;99.90
2825;DHT22;1420;51.324;12.344;2023-04-29T13:22:54;13.30;99.90
2825;DHT22;1420;51.324;12.344;2023-04-29T13:25:21;13.30;99.90
2825;DHT22;1420;51.324;12.344;2023-04-29T13:27:49;13.40;99.90
2825;DHT22;1420;51.324;12.344;2023-04-29T13:30:16;13.50;99.90
2825;DHT22;1420;51.324;12.344;2023-04-29T13:32:43;13.60;99.90
2825;DHT22;1420;51.324;12.344;2023-04-29T13:35:10;13.70;99.90
2825;DHT22;1420;51.324;12.344;2023-04-29T13:37:38;13.60;99.90
2825;DHT22;1420;51.324;12.344;2023-04-29T13:40:06;13.50;99.90
2825;DHT22;1420;51.324;12.344;2023-04-29T13:42:33;13.70;99.90
2825;DHT22;1420;51.324;12.344;2023-04-29T13:45:00;13.80;99.90
2825;DHT22;1420;51.324;12.344;2023-04-29T13:47:27;13.40;99.90
2825;DHT22;1420;51.324;12.344;2023-04-29T13:49:55;13.20;99.90
2825;DHT22;1420;51.324;12.344;2023-04-29T13:52:23;13.20;99.90
2825;DHT22;1420;51.324;12.344;2023-04-29T13:54:50;13.20;99.90
2825;DHT22;1420;51.324;12.344;2023-04-29T13:57:17;13.20;99.90
2825;DHT22;1420;51.324;12.344;2023-04-29T13:59:44;13.20;99.90
2825;DHT22;1420;51.324;12.344;2023-04-29T14:02:11;12.90;99.90
2825;DHT22;1420;51.324;12.344;2023-04-29T14:04:39;13.10;99.90
2825;DHT22;1420;51.324;12.344;2023-04-29T14:07:07;13.40;99.90
2825;DHT22;1420;51.324;12.344;2023-04-29T14:09:34;13.30;99.90
2825;DHT22;1420;51.324;12.344;2023-04-29T14:12:01;13.40;99.90
2825;DHT22;1420;51.324;12.344;2023-04-29T14:14:29;13.60;99.90
2825;DHT22;1420;51.324;12.344;2023-04-29T14:16:56;13.60;99.90
2825;DHT22;1420;51.324;12.344;2023-04-29T14:19:24;13.70;99.90
2825;DHT22;1420;51.324;12.344;2023-04-29T14:21:52;13.70;99.90
2825;DHT22;1420;51.324;12.344;2023-04-29T14:24:19;14.00;99.90
2825;DHT22;1420;51.324;12.344;2023-04-29T14:26:46;13.90;99.90
2825;DHT22;1420;51.324;12.344;2023-04-29T14:29:13;14.00;99.90
2825;DHT22;1420;51.324;12.344;2023-04-29T14:31:41;14.00;99.90
2825;DHT22;1420;51.324;12.344;2023-04-29T14:34:09;14.00;99.90
2825;DHT22;1420;51.324;12.344;2023-04-29T14:36:37;14.00;99.90
2825;DHT22;1420;51.324;12.344;2023-04-29T14:39:04;14.00;99.90
2825;DHT22;1420;51.324;12.344;2023-04-29T14:41:32;14.40;99.90
2825;DHT22;1420;51.324;12.344;2023-04-29T14:43:59;14.40;99.90
2825;DHT22;1420;51.324;12.344;2023-04-29T14:46:26;14.40;99.90
2825;DHT22;1420;51.324;12.344;2023-04-29T14:48:53;14.40;99.90
2825;DHT22;1420;51.324;12.344;2023-04-29T14:51:21;14.10;99.90
2825;DHT22;1420;51.324;12.344;2023-04-29T14:53:49;14.00;99.90
2825;DHT22;1420;51.324;12.344;2023-04-29T14:56:17;14.00;99.90
2825;DHT22;1420;51.324;12.344;2023-04-29T14:58:44;14.10;99.90
2825;DHT22;1420;51.324;12.344;2023-04-29T15:01:11;13.90;99.90
2825;DHT22;1420;51.324;12.344;2023-04-29T15:03:38;14.00;99.90
2825;DHT22;1420;51.324;12.344;2023-04-29T15:06:06;13.90;99.90
2825;DHT22;1420;51.324;12.344;2023-04-29T15:08:33;13.80;99.90
2825;DHT22;1420;51.324;12.344;2023-04-29T15:11:00;13.90;99.90
2825;DHT22;1420;51.324;12.344;2023-04-29T15:13:27;13.90;99.90
2825;DHT22;1420;51.324;12.344;2023-04-29T15:15:54;13.80;99.90
2825;DHT22;1420;51.324;12.344;2023-04-29T15:18:22;13.80;99.90
2825;DHT22;1420;51.324;12.344;2023-04-29T15:20:49;13.80;99.90
2825;DHT22;1420;51.324;12.344;2023-04-29T15:23:16;13.70;99.90
2825;DHT22;1420;51.324;12.344;2023-04-29T15:25:44;13.90;99.90
2825;DHT22;1420;51.324;12.344;2023-04-29T15:28:11;13.90;99.90
2825;DHT22;1420;51.324;12.344;2023-04-29T15:30:39;13.90;99.90
2825;DHT22;1420;51.324;12.344;2023-04-29T15:33:07;13.90;99.90
2825;DHT22;1420;51.324;12.344;2023-04-29T15:35:34;14.00;99.90
2825;DHT22;1420;51.324;12.344;2023-04-29T15:38:01;13.80;99.90
2825;DHT22;1420;51.324;12.344;2023-04-29T15:40:28;13.90;99.90
2825;DHT22;1420;51.324;12.344;2023-04-29T15:42:55;14.00;99.90
2825;DHT22;1420;51.324;12.344;2023-04-29T15:45:23;13.90;99.90
2825;DHT22;1420;51.324;12.344;2023-04-29T15:47:50;14.00;99.90
2825;DHT22;1420;51.324;12.344;2023-04-29T15:50:17;13.90;99.90
2825;DHT22;1420;51.324;12.344;2023-04-29T15:52:45;13.90;99.90
2825;DHT22;1420;51.324;12.344;2023-04-29T15:55:13;13.80;99.90
2825;DHT22;1420;51.324;12.344;2023-04-29T15:57:41;13.70;99.90
2825;DHT22;1420;51.324;12.344;2023-04-29T16:00:08;13.70;99.90
2825;DHT22;1420;51.324;12.344;2023-04-29T16:02:36;13.80;99.90
2825;DHT22;1420;51.324;12.344;2023-04-29T16:05:03;13.80;99.90